createdAt,value
2022-12-19T00:00:05.407Z,100433.16
2022-12-19T00:02:39.699Z,100463.09
2022-12-19T00:05:07.333Z,100451.41
2022-12-19T00:07:34.342Z,100481.03
2022-12-19T00:10:01.452Z,100475.94
2022-12-19T00:12:30.893Z,100450.66
2022-12-19T00:14:57.915Z,100471.34
2022-12-19T00:17:26.625Z,100453.53
2022-12-19T00:19:53.591Z,100480.47
2022-12-19T00:22:20.601Z,100484.66
2022-12-19T00:24:48.574Z,100485.88
2022-12-19T00:27:15.571Z,100489.72
2022-12-19T00:29:42.524Z,100471.81
2022-12-19T00:32:09.533Z,100490.03
2022-12-19T00:34:42.170Z,100481.81
2022-12-19T00:37:09.132Z,100477.94
2022-12-19T00:39:36.464Z,100477.50
2022-12-19T00:42:03.359Z,100481.97
2022-12-19T00:44:30.266Z,100473.13
2022-12-19T00:46:58.945Z,100481.66
2022-12-19T00:49:25.961Z,100462.50
2022-12-19T00:51:52.892Z,100485.44
2022-12-19T00:54:20.060Z,100487.06
2022-12-19T00:56:47.418Z,100505.94
2022-12-19T00:59:14.502Z,100498.28
2022-12-19T01:01:44.432Z,100501.44
2022-12-19T01:04:33.537Z,100489.47
2022-12-19T01:07:03.252Z,100500.84
2022-12-19T01:09:35.507Z,100504.75
2022-12-19T01:12:24.509Z,100482.91
2022-12-19T01:14:54.645Z,100497.56
2022-12-19T01:17:24.718Z,100494.88
2022-12-19T01:19:53.375Z,100472.41
2022-12-19T01:22:20.398Z,100467.63
2022-12-19T01:24:47.397Z,100483.47
2022-12-19T01:27:15.695Z,100485.25
2022-12-19T01:29:51.827Z,100470.25
2022-12-19T01:32:20.468Z,100488.22
2022-12-19T01:34:47.491Z,100457.25
2022-12-19T01:37:18.114Z,100493.59
2022-12-19T01:39:46.089Z,100475.63
2022-12-19T01:42:23.423Z,100485.19
2022-12-19T01:45:13.413Z,100481.59
2022-12-19T01:47:51.216Z,100485.97
2022-12-19T01:50:31.205Z,100485.50
2022-12-19T01:52:59.735Z,100480.72
2022-12-19T01:55:26.915Z,100471.53
2022-12-19T01:57:55.569Z,100481.88
2022-12-19T02:00:22.845Z,100477.97
2022-12-19T02:02:59.588Z,100440.25
2022-12-19T02:05:26.695Z,100456.84
2022-12-19T02:07:54.456Z,100483.47
2022-12-19T02:10:21.545Z,100455.50
2022-12-19T02:12:49.787Z,100443.38
2022-12-19T02:15:18.189Z,100481.53
2022-12-19T02:17:54.661Z,100492.03
2022-12-19T02:20:39.562Z,100496.22
2022-12-19T02:23:10.197Z,100493.19
2022-12-19T02:26:06.560Z,100491.88
2022-12-19T02:28:53.678Z,100480.91
2022-12-19T02:31:46.911Z,100475.81
2022-12-19T02:34:44.553Z,100478.78
2022-12-19T02:37:21.099Z,100465.41
2022-12-19T02:39:55.832Z,100470.31
2022-12-19T02:42:31.981Z,100452.59
2022-12-19T02:45:04.310Z,100448.25
2022-12-19T02:47:32.980Z,100451.94
2022-12-19T02:50:02.052Z,100421.19
2022-12-19T02:52:30.289Z,100464.50
2022-12-19T02:55:04.592Z,100451.28
2022-12-19T02:57:39.444Z,100450.50
2022-12-19T03:00:17.860Z,100447.69
2022-12-19T03:03:12.522Z,100457.31
2022-12-19T03:06:05.884Z,100446.09
2022-12-19T03:08:35.932Z,100444.78
2022-12-19T03:11:09.245Z,100408.91
2022-12-19T03:13:44.563Z,100396.81
2022-12-19T03:16:14.281Z,100420.56
2022-12-19T03:18:42.228Z,100441.09
2022-12-19T03:21:34.996Z,100417.88
2022-12-19T03:24:03.916Z,100428.06
2022-12-19T03:26:38.326Z,100424.50
2022-12-19T03:29:12.828Z,100432.00
2022-12-19T03:31:40.643Z,100409.53
2022-12-19T03:34:17.551Z,100428.25
2022-12-19T03:36:49.035Z,100406.75
2022-12-19T03:39:18.054Z,100417.97
2022-12-19T03:42:03.628Z,100416.94
2022-12-19T03:44:34.560Z,100425.44
2022-12-19T03:47:13.796Z,100440.44
2022-12-19T03:49:41.014Z,100417.09
2022-12-19T03:52:22.712Z,100425.75
2022-12-19T03:55:01.427Z,100416.47
2022-12-19T03:57:41.562Z,100413.16
2022-12-19T04:00:13.472Z,100394.00
2022-12-19T04:02:59.784Z,100402.66
2022-12-19T04:05:28.933Z,100414.19
2022-12-19T04:08:01.213Z,100413.44
2022-12-19T04:10:29.240Z,100387.84
2022-12-19T04:13:04.779Z,100400.28
2022-12-19T04:15:40.066Z,100406.53
2022-12-19T04:18:11.065Z,100396.78
2022-12-19T04:20:41.561Z,100372.31
2022-12-19T04:23:31.526Z,100400.50
2022-12-19T04:26:03.362Z,100355.91
2022-12-19T04:28:39.441Z,100409.47
2022-12-19T04:31:07.803Z,100372.66
2022-12-19T04:33:34.752Z,100400.78
2022-12-19T04:36:01.843Z,100387.00
2022-12-19T04:38:28.880Z,100383.72
2022-12-19T04:40:56.767Z,100371.97
2022-12-19T04:43:23.884Z,100377.22
2022-12-19T04:45:56.988Z,100353.63
2022-12-19T04:48:24.934Z,100375.09
2022-12-19T04:50:52.043Z,100381.69
2022-12-19T04:53:19.068Z,100373.91
2022-12-19T04:55:46.111Z,100396.19
2022-12-19T04:58:15.347Z,100377.13
2022-12-19T05:00:46.038Z,100389.69
2022-12-19T05:03:13.002Z,100371.28
2022-12-19T05:05:40.562Z,100389.75
2022-12-19T05:08:07.919Z,100391.84
2022-12-19T05:10:36.843Z,100377.00
2022-12-19T05:13:03.883Z,100399.00
2022-12-19T05:15:30.876Z,100390.88
2022-12-19T05:17:58.107Z,100387.38
2022-12-19T05:20:25.064Z,100389.38
2022-12-19T05:22:52.125Z,100363.28
2022-12-19T05:25:19.150Z,100413.72
2022-12-19T05:27:46.197Z,100392.00
2022-12-19T05:30:13.551Z,100392.81
2022-12-19T05:32:40.596Z,100367.78
2022-12-19T05:35:08.269Z,100396.31
2022-12-19T05:37:35.544Z,100375.22
2022-12-19T05:40:02.751Z,100356.06
2022-12-19T05:42:30.501Z,100372.25
2022-12-19T05:44:58.098Z,100382.72
2022-12-19T05:47:25.289Z,100388.66
2022-12-19T05:49:52.222Z,100381.66
2022-12-19T05:52:19.143Z,100353.22
2022-12-19T05:54:46.191Z,100337.31
2022-12-19T05:57:13.226Z,100371.91
2022-12-19T05:59:40.265Z,100351.00
2022-12-19T06:02:07.421Z,100369.13
2022-12-19T06:04:37.766Z,100364.09
2022-12-19T06:07:05.625Z,100346.56
2022-12-19T06:09:34.797Z,100379.59
2022-12-19T06:12:01.937Z,100378.34
2022-12-19T06:14:28.895Z,100375.31
2022-12-19T06:16:55.995Z,100361.34
2022-12-19T06:19:23.514Z,100365.47
2022-12-19T06:21:51.014Z,100360.75
2022-12-19T06:24:18.209Z,100362.53
2022-12-19T06:26:48.295Z,100369.44
2022-12-19T06:29:15.223Z,100364.59
2022-12-19T06:31:42.271Z,100367.94
2022-12-19T06:34:22.084Z,100390.66
2022-12-19T06:37:00.514Z,100371.22
2022-12-19T06:39:29.971Z,100388.25
2022-12-19T06:42:15.426Z,100394.16
2022-12-19T06:44:43.514Z,100395.34
2022-12-19T06:47:10.588Z,100395.56
2022-12-19T06:49:37.543Z,100367.72
2022-12-19T06:52:09.025Z,100386.75
2022-12-19T06:54:36.273Z,100379.75
2022-12-19T06:57:03.285Z,100366.31
2022-12-19T06:59:30.363Z,100373.34
2022-12-19T07:02:01.994Z,100373.59
2022-12-19T07:04:52.662Z,100400.06
2022-12-19T07:07:19.819Z,100383.28
2022-12-19T07:09:46.902Z,100386.38
2022-12-19T07:12:14.013Z,100349.81
2022-12-19T07:14:40.977Z,100363.59
2022-12-19T07:17:08.040Z,100382.31
2022-12-19T07:19:35.653Z,100386.13
2022-12-19T07:22:04.184Z,100383.56
2022-12-19T07:24:31.946Z,100357.47
2022-12-19T07:27:01.767Z,100366.41
2022-12-19T07:29:28.792Z,100328.03
2022-12-19T07:31:55.837Z,100357.44
2022-12-19T07:34:22.987Z,100339.81
2022-12-19T07:36:53.024Z,100364.38
2022-12-19T07:39:20.046Z,100354.38
2022-12-19T07:41:47.084Z,100360.25
2022-12-19T07:44:16.606Z,100361.28
2022-12-19T07:46:43.832Z,100355.13
2022-12-19T07:49:10.815Z,100369.97
2022-12-19T07:51:37.811Z,100361.16
2022-12-19T07:54:07.748Z,100368.69
2022-12-19T07:56:34.756Z,100384.31
2022-12-19T07:59:01.925Z,100387.22
2022-12-19T08:01:29.600Z,100383.25
2022-12-19T08:03:58.204Z,100397.06
2022-12-19T08:06:26.655Z,100394.00
2022-12-19T08:08:53.837Z,100388.88
2022-12-19T08:11:26.715Z,100389.63
2022-12-19T08:13:54.540Z,100349.84
2022-12-19T08:16:22.700Z,100384.50
2022-12-19T08:18:49.757Z,100347.75
2022-12-19T08:21:16.718Z,100374.50
2022-12-19T08:23:43.731Z,100356.72
2022-12-19T08:26:13.244Z,100371.16
2022-12-19T08:28:40.713Z,100364.06
2022-12-19T08:31:09.620Z,100353.59
2022-12-19T08:33:37.009Z,100372.41
2022-12-19T08:36:09.784Z,100366.50
2022-12-19T08:38:37.388Z,100360.59
2022-12-19T08:41:04.556Z,100357.34
2022-12-19T08:43:32.697Z,100352.88
2022-12-19T08:45:59.923Z,100359.72
2022-12-19T08:48:27.477Z,100354.72
2022-12-19T08:50:57.158Z,100354.06
2022-12-19T08:53:26.611Z,100350.19
2022-12-19T08:55:58.583Z,100337.69
2022-12-19T08:58:26.744Z,100370.41
2022-12-19T09:00:57.584Z,100346.44
2022-12-19T09:03:26.370Z,100342.75
2022-12-19T09:06:07.948Z,100333.19
2022-12-19T09:08:38.654Z,100329.66
2022-12-19T09:11:09.083Z,100337.66
2022-12-19T09:13:37.587Z,100340.59
2022-12-19T09:16:06.264Z,100347.97
2022-12-19T09:18:33.975Z,100320.91
2022-12-19T09:21:01.693Z,100326.09
2022-12-19T09:23:31.815Z,100339.53
2022-12-19T09:26:05.177Z,100351.38
2022-12-19T09:28:32.316Z,100341.47
2022-12-19T09:31:02.050Z,100346.06
2022-12-19T09:33:31.337Z,100318.81
2022-12-19T09:35:59.006Z,100327.31
2022-12-19T09:38:27.131Z,100344.06
2022-12-19T09:41:31.895Z,100349.03
2022-12-19T09:44:05.234Z,100342.06
2022-12-19T09:46:56.362Z,100342.31
2022-12-19T09:49:26.100Z,100331.81
2022-12-19T09:52:21.289Z,100347.59
2022-12-19T09:55:03.419Z,100341.66
2022-12-19T09:57:58.114Z,100337.56
2022-12-19T10:00:36.416Z,100341.47
2022-12-19T10:03:13.519Z,100330.72
2022-12-19T10:07:09.304Z,100339.03
2022-12-19T10:08:39.702Z,100337.47
2022-12-19T10:12:38.463Z,100341.25
2022-12-19T10:14:34.862Z,100344.97
2022-12-19T10:17:29.533Z,100333.19
2022-12-19T10:20:25.525Z,100340.34
2022-12-19T10:23:23.384Z,100338.34
2022-12-19T10:25:55.215Z,100336.69
2022-12-19T10:28:50.090Z,100341.03
2022-12-19T10:31:34.210Z,100326.41
2022-12-19T10:34:21.522Z,100332.53
2022-12-19T10:40:10.451Z,100319.13
2022-12-19T10:42:48.825Z,100331.66
2022-12-19T10:45:19.480Z,100329.88
2022-12-19T10:47:57.624Z,100321.25
2022-12-19T10:50:29.555Z,100328.53
2022-12-19T10:53:08.209Z,100324.16
2022-12-19T10:55:42.855Z,100329.53
2022-12-19T10:58:30.274Z,100326.16
2022-12-19T11:01:00.177Z,100331.41
2022-12-19T11:03:27.877Z,100316.22
2022-12-19T11:05:59.193Z,100320.69
2022-12-19T11:08:28.860Z,100327.16
2022-12-19T11:13:00.328Z,100317.78
2022-12-19T11:19:23.944Z,100327.16
2022-12-19T11:22:06.299Z,100340.34
2022-12-19T11:29:37.840Z,100338.66
2022-12-19T11:29:42.226Z,100338.88
2022-12-19T11:30:36.477Z,100324.47
2022-12-19T11:30:41.365Z,100336.31
2022-12-19T11:34:19.435Z,100329.38
2022-12-19T11:36:52.795Z,100345.94
2022-12-19T11:39:33.158Z,100342.69
2022-12-19T11:42:16.897Z,100335.00
2022-12-19T11:44:53.867Z,100349.72
2022-12-19T11:47:38.463Z,100346.34
2022-12-19T11:50:26.882Z,100352.50
2022-12-19T11:53:19.111Z,100359.13
2022-12-19T11:56:01.669Z,100348.34
2022-12-19T11:58:30.188Z,100358.06
2022-12-19T12:01:24.146Z,100354.84
2022-12-19T12:04:02.517Z,100364.44
2022-12-19T12:06:34.930Z,100365.22
2022-12-19T12:12:43.414Z,100365.69
2022-12-19T12:21:24.966Z,100363.75
2022-12-19T12:31:10.433Z,100363.53
2022-12-19T12:31:12.902Z,100373.38
2022-12-19T12:31:19.470Z,100381.19
2022-12-19T12:31:21.671Z,100366.44
2022-12-19T12:31:39.616Z,100367.53
2022-12-19T12:35:38.454Z,100390.13
2022-12-19T12:41:45.573Z,100388.66
2022-12-19T12:44:12.978Z,100398.81
2022-12-19T12:46:56.231Z,100399.06
2022-12-19T12:49:46.273Z,100401.75
2022-12-19T12:52:18.660Z,100388.19
2022-12-19T12:54:48.846Z,100399.47
2022-12-19T12:57:39.160Z,100408.00
2022-12-19T13:00:18.384Z,100411.78
2022-12-19T13:02:50.395Z,100380.72
2022-12-19T13:05:32.449Z,100403.06
2022-12-19T13:07:59.710Z,100386.53
2022-12-19T13:10:32.767Z,100382.97
2022-12-19T13:13:09.409Z,100418.25
2022-12-19T13:15:46.143Z,100400.81
2022-12-19T13:18:34.545Z,100421.94
2022-12-19T13:21:04.166Z,100427.28
2022-12-19T13:23:45.215Z,100425.09
2022-12-19T13:26:52.511Z,100432.09
2022-12-19T13:29:31.379Z,100435.69
2022-12-19T13:32:15.601Z,100410.84
2022-12-19T13:35:20.576Z,100443.81
2022-12-19T13:39:58.421Z,100422.44
2022-12-19T13:40:33.259Z,100417.50
2022-12-19T13:43:24.961Z,100436.31
2022-12-19T13:45:54.703Z,100439.09
2022-12-19T13:48:46.583Z,100432.38
2022-12-19T13:51:14.518Z,100440.09
2022-12-19T13:53:43.245Z,100427.81
2022-12-19T13:56:17.865Z,100436.72
2022-12-19T13:58:59.569Z,100440.72
2022-12-19T14:01:37.708Z,100446.88
2022-12-19T14:04:08.891Z,100449.66
2022-12-19T14:07:05.030Z,100441.16
2022-12-19T14:11:26.635Z,100438.47
2022-12-19T14:13:50.262Z,100454.13
2022-12-19T14:15:39.816Z,100464.53
2022-12-19T14:18:43.012Z,100461.16
2022-12-19T14:22:03.707Z,100451.94
2022-12-19T14:24:13.738Z,100472.03
2022-12-19T14:28:21.949Z,100464.66
2022-12-19T14:30:26.028Z,100469.13
2022-12-19T14:33:44.124Z,100475.75
2022-12-19T14:36:12.599Z,100464.31
2022-12-19T14:39:24.521Z,100447.44
2022-12-19T14:41:08.857Z,100474.03
2022-12-19T14:43:59.462Z,100451.03
2022-12-19T14:54:07.516Z,100446.50
2022-12-19T14:54:11.538Z,100474.28
2022-12-19T14:54:31.033Z,100468.53
2022-12-19T14:56:14.203Z,100469.34
2022-12-19T14:58:55.187Z,100437.13
2022-12-19T15:01:30.130Z,100472.91
2022-12-19T15:04:53.436Z,100456.81
2022-12-19T15:07:12.196Z,100480.63
2022-12-19T15:11:06.383Z,100475.47
2022-12-19T15:14:49.064Z,100479.06
2022-12-19T15:16:03.498Z,100459.22
2022-12-19T15:18:33.598Z,100473.13
2022-12-19T15:21:04.262Z,100487.78
2022-12-19T15:23:31.820Z,100477.38
2022-12-19T15:26:11.336Z,100476.28
2022-12-19T15:28:43.921Z,100488.78
2022-12-19T15:31:17.612Z,100488.19
2022-12-19T15:34:07.136Z,100498.72
2022-12-19T15:36:31.981Z,100494.56
2022-12-19T15:38:59.430Z,100482.06
2022-12-19T15:41:26.942Z,100487.59
2022-12-19T15:44:03.838Z,100488.53
2022-12-19T15:46:32.796Z,100494.75
2022-12-19T15:48:59.892Z,100498.25
2022-12-19T15:51:27.101Z,100481.59
2022-12-19T15:53:56.989Z,100483.03
2022-12-19T15:56:36.813Z,100444.69
2022-12-19T15:59:05.276Z,100474.16
2022-12-19T16:01:33.714Z,100501.16
2022-12-19T16:04:01.577Z,100496.41
2022-12-19T16:06:28.912Z,100482.22
2022-12-19T16:08:56.648Z,100497.88
2022-12-19T16:11:24.903Z,100492.72
2022-12-19T16:13:58.715Z,100492.81
2022-12-19T16:16:25.759Z,100486.19
2022-12-19T16:18:52.780Z,100479.66
2022-12-19T16:21:33.198Z,100502.28
2022-12-19T16:24:01.009Z,100493.53
2022-12-19T16:26:37.313Z,100493.66
2022-12-19T16:29:06.652Z,100492.44
2022-12-19T16:31:33.888Z,100492.66
2022-12-19T16:34:02.541Z,100487.03
2022-12-19T16:36:29.541Z,100470.06
2022-12-19T16:38:56.502Z,100484.25
2022-12-19T16:41:25.249Z,100489.50
2022-12-19T16:43:53.264Z,100489.69
2022-12-19T16:46:30.820Z,100484.97
2022-12-19T16:48:58.109Z,100484.97
2022-12-19T16:51:30.684Z,100491.00
2022-12-19T16:54:00.020Z,100476.22
2022-12-19T16:56:32.913Z,100492.31
2022-12-19T16:59:03.244Z,100490.72
2022-12-19T17:01:30.772Z,100503.03
2022-12-19T17:03:58.204Z,100497.88
2022-12-19T17:06:25.308Z,100500.75
2022-12-19T17:08:52.562Z,100504.59
2022-12-19T17:11:22.409Z,100501.66
2022-12-19T17:13:52.695Z,100505.25
2022-12-19T17:16:20.023Z,100503.66
2022-12-19T17:18:47.552Z,100479.63
2022-12-19T17:21:32.696Z,100482.19
2022-12-19T17:24:02.891Z,100505.44
2022-12-19T17:26:29.971Z,100513.38
2022-12-19T17:28:59.642Z,100520.22
2022-12-19T17:31:29.202Z,100514.94
2022-12-19T17:33:58.265Z,100528.06
2022-12-19T17:36:37.047Z,100518.53
2022-12-19T17:39:19.450Z,100533.22
2022-12-19T17:41:47.661Z,100532.81
2022-12-19T17:44:14.754Z,100535.28
2022-12-19T17:46:42.510Z,100520.03
2022-12-19T17:49:36.376Z,100535.56
2022-12-19T17:52:03.515Z,100522.06
2022-12-19T17:54:30.787Z,100533.00
2022-12-19T17:56:58.012Z,100531.91
2022-12-19T17:59:25.042Z,100536.59
2022-12-19T18:01:52.338Z,100528.97
2022-12-19T18:04:21.739Z,100534.22
2022-12-19T18:06:49.466Z,100541.97
2022-12-19T18:09:21.947Z,100548.00
2022-12-19T18:11:50.171Z,100516.72
2022-12-19T18:14:18.464Z,100549.69
2022-12-19T18:16:46.594Z,100544.53
2022-12-19T18:19:24.762Z,100549.81
2022-12-19T18:21:51.997Z,100540.38
2022-12-19T18:24:19.261Z,100511.56
2022-12-19T18:26:46.293Z,100533.00
2022-12-19T18:29:13.997Z,100543.53
2022-12-19T18:31:48.418Z,100536.59
2022-12-19T18:34:24.432Z,100547.53
2022-12-19T18:36:53.174Z,100508.31
2022-12-19T18:39:26.551Z,100543.06
2022-12-19T18:41:54.754Z,100522.28
2022-12-19T18:44:23.225Z,100545.53
2022-12-19T18:46:51.327Z,100537.78
2022-12-19T18:49:19.384Z,100527.66
2022-12-19T18:51:46.846Z,100533.66
2022-12-19T18:54:19.728Z,100539.56
2022-12-19T18:56:46.955Z,100493.69
2022-12-19T18:59:14.471Z,100532.72
2022-12-19T19:01:45.068Z,100547.31
2022-12-19T19:04:14.616Z,100541.28
2022-12-19T19:06:48.496Z,100511.97
2022-12-19T19:09:19.293Z,100538.59
2022-12-19T19:12:09.658Z,100538.59
2022-12-19T19:14:36.928Z,100504.44
2022-12-19T19:17:05.286Z,100542.16
2022-12-19T19:19:33.642Z,100545.31
2022-12-19T19:22:01.590Z,100536.59
2022-12-19T19:24:28.697Z,100535.22
2022-12-19T19:26:55.852Z,100527.66
2022-12-19T19:29:22.903Z,100532.13
2022-12-19T19:31:52.091Z,100552.47
2022-12-19T19:34:26.976Z,100526.13
2022-12-19T19:36:57.505Z,100541.34
2022-12-19T19:39:25.283Z,100541.97
2022-12-19T19:41:53.812Z,100530.03
2022-12-19T19:44:25.796Z,100535.28
2022-12-19T19:46:53.188Z,100527.44
2022-12-19T19:49:21.830Z,100524.97
2022-12-19T19:51:49.368Z,100522.28
2022-12-19T19:54:16.369Z,100527.84
2022-12-19T19:56:43.571Z,100556.06
2022-12-19T19:59:10.990Z,100551.59
2022-12-19T20:01:38.163Z,100560.13
2022-12-19T20:04:05.311Z,100519.00
2022-12-19T20:06:32.777Z,100543.72
2022-12-19T20:08:59.794Z,100526.50
2022-12-19T20:11:26.881Z,100476.78
2022-12-19T20:13:54.085Z,100558.78
2022-12-19T20:16:21.412Z,100561.28
2022-12-19T20:18:52.975Z,100570.69
2022-12-19T20:21:20.851Z,100550.84
2022-12-19T20:23:48.091Z,100560.75
2022-12-19T20:26:16.678Z,100568.00
2022-12-19T20:28:50.025Z,100585.25
2022-12-19T20:31:23.217Z,100550.41
2022-12-19T20:33:53.342Z,100587.56
2022-12-19T20:36:20.860Z,100582.59
2022-12-19T20:38:48.311Z,100547.53
2022-12-19T20:41:16.506Z,100552.78
2022-12-19T20:43:43.694Z,100576.81
2022-12-19T20:46:14.273Z,100593.66
2022-12-19T20:48:42.261Z,100583.16
2022-12-19T20:51:10.114Z,100569.72
2022-12-19T20:53:38.471Z,100578.56
2022-12-19T20:56:07.396Z,100562.78
2022-12-19T20:58:36.337Z,100528.25
2022-12-19T21:01:10.661Z,100563.25
2022-12-19T21:03:38.661Z,100559.56
2022-12-19T21:06:07.345Z,100567.53
2022-12-19T21:08:35.494Z,100532.88
2022-12-19T21:11:03.930Z,100577.66
2022-12-19T21:13:31.425Z,100568.72
2022-12-19T21:16:02.115Z,100568.28
2022-12-19T21:18:30.683Z,100560.13
2022-12-19T21:20:59.689Z,100568.03
2022-12-19T21:23:27.391Z,100555.78
2022-12-19T21:25:58.600Z,100556.13
2022-12-19T21:28:26.132Z,100565.84
2022-12-19T21:31:04.665Z,100575.81
2022-12-19T21:33:32.415Z,100575.50
2022-12-19T21:36:06.128Z,100570.13
2022-12-19T21:38:33.106Z,100575.41
2022-12-19T21:41:03.307Z,100564.09
2022-12-19T21:43:31.008Z,100580.19
2022-12-19T21:46:12.864Z,100585.34
2022-12-19T21:48:42.338Z,100592.09
2022-12-19T21:51:10.683Z,100589.41
2022-12-19T21:53:38.560Z,100585.72
2022-12-19T21:56:32.595Z,100587.50
2022-12-19T21:59:02.824Z,100574.19
2022-12-19T22:01:30.641Z,100572.50
2022-12-19T22:04:02.222Z,100569.06
2022-12-19T22:06:32.131Z,100564.66
2022-12-19T22:09:00.653Z,100560.19
2022-12-19T22:11:30.935Z,100547.78
2022-12-19T22:14:01.258Z,100554.94
2022-12-19T22:16:29.046Z,100563.22
2022-12-19T22:18:56.614Z,100561.56
2022-12-19T22:21:24.352Z,100566.81
2022-12-19T22:23:52.876Z,100565.03
2022-12-19T22:26:24.643Z,100566.81
2022-12-19T22:28:53.953Z,100565.03
2022-12-19T22:31:22.645Z,100568.16
2022-12-19T22:33:52.135Z,100571.31
2022-12-19T22:36:27.309Z,100562.44
2022-12-19T22:38:56.736Z,100550.72
2022-12-19T22:41:24.468Z,100566.94
2022-12-19T22:43:52.430Z,100552.81
2022-12-19T22:46:26.558Z,100561.56
2022-12-19T22:48:56.401Z,100551.84
2022-12-19T22:51:23.547Z,100539.31
2022-12-19T22:53:50.673Z,100552.75
2022-12-19T22:56:22.398Z,100557.91
2022-12-19T22:58:51.233Z,100551.59
2022-12-19T23:01:25.035Z,100565.69
2022-12-19T23:03:54.281Z,100567.50
2022-12-19T23:06:22.304Z,100569.06
2022-12-19T23:08:49.543Z,100560.47
2022-12-19T23:11:20.222Z,100555.19
2022-12-19T23:13:48.597Z,100554.53
2022-12-19T23:16:16.457Z,100547.47
2022-12-19T23:18:43.695Z,100549.81
2022-12-19T23:21:21.645Z,100553.31
2022-12-19T23:23:50.741Z,100560.53
2022-12-19T23:26:30.768Z,100555.66
2022-12-19T23:29:00.019Z,100546.91
2022-12-19T23:31:27.919Z,100546.00
2022-12-19T23:33:55.229Z,100567.72
2022-12-19T23:36:44.967Z,100567.41
2022-12-19T23:39:11.283Z,100575.56
2022-12-19T23:41:39.241Z,100526.09
2022-12-19T23:44:06.615Z,100567.50
2022-12-19T23:46:33.651Z,100554.31
2022-12-19T23:49:00.809Z,100558.66
2022-12-19T23:51:28.435Z,100556.22
2022-12-19T23:53:56.209Z,100562.03
2022-12-19T23:56:24.696Z,100554.97
2022-12-19T23:58:51.771Z,100564.25
